Time;durP1;ratioP1;P1;durP2;ratioP2;P2;SDS_P1;SDS_P2;PMS_P1;PMS_P2;Temp;Humidity;BMP_temperature;BMP_pressure;BME280_temperature;BME280_humidity;BME280_pressure;Samples;Min_cycle;Max_cycle;Signal;HPM_P1;HPM_P2
2022/07/27 00:01:04;;;;;;;;;;;;;;;;;;2210939;67;1934;-54
2022/07/27 00:03:40;;;;;;;;;;;;;;;;;;2211114;59;1437;-54
2022/07/27 00:06:14;;;;;;;;;;;;;;;;;;2210798;67;1031;-54
2022/07/27 00:08:47;;;;;;;;;;;;;;;;;;2210860;67;1134;-54
2022/07/27 00:11:20;;;;;;;;;;;;;;;;;;2210947;59;1382;-55
2022/07/27 00:13:53;;;;;;;;;;;;;;;;;;2210727;67;1182;-54
2022/07/27 00:16:27;;;;;;;;;;;;;;;;;;2210856;59;1964;-55
2022/07/27 00:19:02;;;;;;;;;;;;;;;;;;2211096;67;1909;-54
2022/07/27 00:21:36;;;;;;;;;;;;;;;;;;2210821;67;1934;-54
2022/07/27 00:24:09;;;;;;;;;;;;;;;;;;2210498;67;1056;-54
2022/07/27 00:26:43;;;;;;;;;;;;;;;;;;2210954;67;1174;-54
2022/07/27 00:29:16;;;;;;;;;;;;;;;;;;2210763;67;1082;-54
2022/07/27 00:31:49;;;;;;;;;;;;;;;;;;2210648;67;1355;-54
2022/07/27 00:34:25;;;;;;;;;;;;;;;;;;2210783;67;1153;-54
2022/07/27 00:36:58;;;;;;;;;;;;;;;;;;2210331;59;1414;-54
2022/07/27 00:39:31;;;;;;;;;;;;;;;;;;2211027;59;2409;-55
2022/07/27 00:42:04;;;;;;;;;;;;;;;;;;2210615;59;1937;-54
2022/07/27 00:44:37;;;;;;;;;;;;;;;;;;2210797;67;1208;-54
2022/07/27 00:47:10;;;;;;;;;;;;;;;;;;2211110;67;1101;-54
2022/07/27 00:49:46;;;;;;;;;;;;;;;;;;2216642;67;1239;-54
2022/07/27 00:52:20;;;;;;;;;;;;;;;;;;2214605;67;1235;-54
2022/07/27 00:54:54;;;;;;;;;;;;;;;;;;2210522;67;1145;-56
2022/07/27 00:57:28;;;;;;;;;;;;;;;;;;2210930;67;1348;-54
2022/07/27 01:00:01;;;;;;;;;;;;;;;;;;2209847;67;1114;-53
2022/07/27 01:02:34;;;;;;;;;;;;;;;;;;2210179;59;1964;-53
2022/07/27 01:05:10;;;;;;;;;;;;;;;;;;2209867;67;1163;-55
2022/07/27 01:07:44;;;;;;;;;;;;;;;;;;2210551;67;1164;-54
2022/07/27 01:10:18;;;;;;;;;;;;;;;;;;2210476;67;1124;-53
2022/07/27 01:12:51;;;;;;;;;;;;;;;;;;2210646;59;1278;-54
2022/07/27 01:15:24;;;;;;;;;;;;;;;;;;2210624;59;2007;-54
2022/07/27 01:17:57;;;;;;;;;;;;;;;;;;2210028;67;1239;-54
2022/07/27 01:20:34;;;;;;;;;;;;;;;;;;2210202;67;1191;-54
2022/07/27 01:23:10;;;;;;;;;;;;;;;;;;2209809;67;1941;-54
2022/07/27 01:25:44;;;;;;;;;;;;;;;;;;2210615;67;1153;-53
2022/07/27 01:28:17;;;;;;;;;;;;;;;;;;2210334;67;1025;-54
2022/07/27 01:30:50;;;;;;;;;;;;;;;;;;2210044;67;1265;-54
2022/07/27 01:33:24;;;;;;;;;;;;;;;;;;2210670;67;1318;-54
2022/07/27 01:35:58;;;;;;;;;;;;;;;;;;2210684;59;1374;-54
2022/07/27 01:38:34;;;;;;;;;;;;;;;;;;2210194;59;1987;-56
2022/07/27 01:41:07;;;;;;;;;;;;;;;;;;2209705;59;5912;-54
2022/07/27 01:43:40;;;;;;;;;;;;;;;;;;2209946;59;1957;-55
2022/07/27 01:46:14;;;;;;;;;;;;;;;;;;2210562;67;1156;-55
2022/07/27 01:48:47;;;;;;;;;;;;;;;;;;2211038;67;1289;-54
2022/07/27 01:51:20;;;;;;;;;;;;;;;;;;2210511;67;1220;-55
2022/07/27 01:53:56;;;;;;;;;;;;;;;;;;2210728;67;1281;-54
2022/07/27 01:56:29;;;;;;;;;;;;;;;;;;2210608;67;1047;-54
2022/07/27 01:59:02;;;;;;;;;;;;;;;;;;2210042;67;1204;-54
2022/07/27 02:01:35;;;;;;;;;;;;;;;;;;2209604;59;1992;-54
2022/07/27 02:04:09;;;;;;;;;;;;;;;;;;2209742;59;1249;-54
2022/07/27 02:06:42;;;;;;;;;;;;;;;;;;2210310;67;1142;-53
2022/07/27 02:09:19;;;;;;;;;;;;;;;;;;2210032;67;1132;-54
2022/07/27 02:14:42;;;;;;;;;;;;;;;;;;2209987;67;1250;-54
2022/07/27 02:17:15;;;;;;;;;;;;;;;;;;2209881;59;2203;-54
2022/07/27 02:19:48;;;;;;;;;;;;;;;;;;2209900;67;1175;-54
2022/07/27 02:22:21;;;;;;;;;;;;;;;;;;2209906;67;1927;-54
2022/07/27 02:24:57;;;;;;;;;;;;;;;;;;2209967;67;1172;-54
2022/07/27 02:27:30;;;;;;;;;;;;;;;;;;2209888;67;1180;-55
2022/07/27 02:30:03;;;;;;;;;;;;;;;;;;2209591;67;1207;-54
2022/07/27 02:32:37;;;;;;;;;;;;;;;;;;2209656;67;1252;-54
2022/07/27 02:35:10;;;;;;;;;;;;;;;;;;2209786;67;1111;-54
2022/07/27 02:37:43;;;;;;;;;;;;;;;;;;2210449;59;1991;-54
2022/07/27 02:40:19;;;;;;;;;;;;;;;;;;2210250;67;1098;-55
2022/07/27 02:42:53;;;;;;;;;;;;;;;;;;2212039;53;1965;-76
2022/07/27 02:45:26;;;;;;;;;;;;;;;;;;2205245;59;1203;-76
2022/07/27 02:47:59;;;;;;;;;;;;;;;;;;2205747;59;1239;-76
2022/07/27 02:50:33;;;;;;;;;;;;;;;;;;2205125;59;1243;-76
2022/07/27 02:53:06;;;;;;;;;;;;;;;;;;2205542;59;2226;-75
2022/07/27 02:55:41;;;;;;;;;;;;;;;;;;2206415;59;1525;-76
2022/07/27 02:58:15;;;;;;;;;;;;;;;;;;2210144;53;3631;-64
2022/07/27 03:00:48;;;;;;;;;;;;;;;;;;2210838;67;1177;-63
2022/07/27 03:03:21;;;;;;;;;;;;;;;;;;2209913;59;2387;-63
2022/07/27 03:05:54;;;;;;;;;;;;;;;;;;2210349;59;1312;-63
2022/07/27 03:08:27;;;;;;;;;;;;;;;;;;2210372;67;1302;-64
2022/07/27 03:11:03;;;;;;;;;;;;;;;;;;2209551;59;1298;-62
2022/07/27 03:13:36;;;;;;;;;;;;;;;;;;2210608;59;1609;-63
2022/07/27 03:16:09;;;;;;;;;;;;;;;;;;2210275;59;1984;-64
2022/07/27 03:18:42;;;;;;;;;;;;;;;;;;2209941;67;1164;-64
2022/07/27 03:21:16;;;;;;;;;;;;;;;;;;2210272;59;1287;-64
2022/07/27 03:23:49;;;;;;;;;;;;;;;;;;2210193;67;1941;-64
2022/07/27 03:26:25;;;;;;;;;;;;;;;;;;2210755;67;1306;-64
2022/07/27 03:28:58;;;;;;;;;;;;;;;;;;2210395;59;1206;-63
2022/07/27 03:31:31;;;;;;;;;;;;;;;;;;2210416;67;1173;-63
2022/07/27 03:34:04;;;;;;;;;;;;;;;;;;2210658;67;1135;-64
2022/07/27 03:36:38;;;;;;;;;;;;;;;;;;2210682;59;1369;-63
2022/07/27 03:39:11;;;;;;;;;;;;;;;;;;2210117;59;1891;-64
2022/07/27 03:41:47;;;;;;;;;;;;;;;;;;2210414;67;1183;-63
2022/07/27 03:44:20;;;;;;;;;;;;;;;;;;2210424;67;1929;-64
2022/07/27 03:46:54;;;;;;;;;;;;;;;;;;2210005;67;1239;-64
2022/07/27 03:49:27;;;;;;;;;;;;;;;;;;2210495;67;1267;-64
2022/07/27 03:52:00;;;;;;;;;;;;;;;;;;2209209;67;1217;-64
2022/07/27 03:54:33;;;;;;;;;;;;;;;;;;2210104;67;1255;-64
2022/07/27 03:57:09;;;;;;;;;;;;;;;;;;2209967;59;1184;-64
2022/07/27 03:59:42;;;;;;;;;;;;;;;;;;2209708;67;1218;-61
2022/07/27 04:02:15;;;;;;;;;;;;;;;;;;2209470;67;1972;-63
2022/07/27 04:04:48;;;;;;;;;;;;;;;;;;2209696;59;1311;-64
2022/07/27 04:07:22;;;;;;;;;;;;;;;;;;2208739;67;1102;-64
2022/07/27 04:09:55;;;;;;;;;;;;;;;;;;2209102;67;1148;-62
2022/07/27 04:12:31;;;;;;;;;;;;;;;;;;2210761;59;1418;-64
2022/07/27 04:15:04;;;;;;;;;;;;;;;;;;2210129;59;1883;-63
2022/07/27 04:17:37;;;;;;;;;;;;;;;;;;2210092;67;1179;-64
2022/07/27 04:20:11;;;;;;;;;;;;;;;;;;2209988;67;1121;-64
2022/07/27 04:22:44;;;;;;;;;;;;;;;;;;2209832;67;1929;-65
2022/07/27 04:25:17;;;;;;;;;;;;;;;;;;2211830;67;1017;-63
2022/07/27 04:27:53;;;;;;;;;;;;;;;;;;2210544;67;1264;-62
2022/07/27 04:30:26;;;;;;;;;;;;;;;;;;2210919;59;1204;-63
2022/07/27 04:33:00;;;;;;;;;;;;;;;;;;2210925;67;1280;-64
2022/07/27 04:35:33;;;;;;;;;;;;;;;;;;2210736;59;1376;-63
2022/07/27 04:38:06;;;;;;;;;;;;;;;;;;2209485;67;1894;-63
2022/07/27 04:40:39;;;;;;;;;;;;;;;;;;2210495;67;1199;-64
2022/07/27 04:43:15;;;;;;;;;;;;;;;;;;2211035;67;1979;-63
2022/07/27 04:45:48;;;;;;;;;;;;;;;;;;2210931;67;1243;-64
2022/07/27 04:48:21;;;;;;;;;;;;;;;;;;2209655;67;1262;-65
2022/07/27 04:50:54;;;;;;;;;;;;;;;;;;2209454;67;1230;-63
2022/07/27 04:53:27;;;;;;;;;;;;;;;;;;2210552;67;1290;-64
2022/07/27 04:56:00;;;;;;;;;;;;;;;;;;2210078;67;1143;-62
2022/07/27 04:58:36;;;;;;;;;;;;;;;;;;2210891;59;1240;-64
2022/07/27 05:01:12;;;;;;;;;;;;;;;;;;2209444;67;1211;-62
2022/07/27 05:03:45;;;;;;;;;;;;;;;;;;2210960;67;1938;-64
2022/07/27 05:06:19;;;;;;;;;;;;;;;;;;2210781;67;1184;-62
2022/07/27 05:08:52;;;;;;;;;;;;;;;;;;2210804;67;1255;-64
2022/07/27 05:11:25;;;;;;;;;;;;;;;;;;2210066;59;1357;-64
2022/07/27 05:14:02;;;;;;;;;;;;;;;;;;2210113;67;1299;-65
2022/07/27 05:16:36;;;;;;;;;;;;;;;;;;2210091;59;2001;-64
2022/07/27 05:19:09;;;;;;;;;;;;;;;;;;2210039;67;1162;-63
2022/07/27 05:21:42;;;;;;;;;;;;;;;;;;2209086;67;1231;-64
2022/07/27 05:24:15;;;;;;;;;;;;;;;;;;2210676;67;2028;-63
2022/07/27 05:26:48;;;;;;;;;;;;;;;;;;2209452;67;1122;-64
2022/07/27 05:29:25;;;;;;;;;;;;;;;;;;2210141;67;1225;-64
2022/07/27 05:31:58;;;;;;;;;;;;;;;;;;2210785;59;1302;-64
2022/07/27 05:34:31;;;;;;;;;;;;;;;;;;2210597;67;1280;-64
2022/07/27 05:37:04;;;;;;;;;;;;;;;;;;2209357;59;1982;-64
2022/07/27 05:39:37;;;;;;;;;;;;;;;;;;2209394;67;1242;-64
2022/07/27 05:42:11;;;;;;;;;;;;;;;;;;2210014;67;1169;-64
2022/07/27 05:44:47;;;;;;;;;;;;;;;;;;2210122;67;1933;-64
2022/07/27 05:47:20;;;;;;;;;;;;;;;;;;2210070;67;1172;-64
2022/07/27 05:49:53;;;;;;;;;;;;;;;;;;2210226;67;1256;-63
2022/07/27 05:52:26;;;;;;;;;;;;;;;;;;2210410;67;1255;-64
2022/07/27 05:55:00;;;;;;;;;;;;;;;;;;2209774;67;1206;-65
2022/07/27 05:57:34;;;;;;;;;;;;;;;;;;2210329;59;1276;-65
2022/07/27 06:00:11;;;;;;;;;;;;;;;;;;2209820;67;1124;-65
2022/07/27 06:02:44;;;;;;;;;;;;;;;;;;2210111;59;1224;-64
2022/07/27 06:05:18;;;;;;;;;;;;;;;;;;2209790;67;1935;-64
2022/07/27 06:08:02;;;;;;;;;;;;;;;;;;2209856;67;1224;-65
2022/07/27 06:10:35;;;;;;;;;;;;;;;;;;2209983;67;1991;-65
2022/07/27 06:13:12;;;;;;;;;;;;;;;;;;2209799;59;1339;-66
2022/07/27 06:15:49;;;;;;;;;;;;;;;;;;2210485;59;2008;-66
2022/07/27 06:18:22;;;;;;;;;;;;;;;;;;2209352;67;1163;-65
2022/07/27 06:20:55;;;;;;;;;;;;;;;;;;2210096;67;1218;-65
2022/07/27 06:23:28;;;;;;;;;;;;;;;;;;2209845;67;1985;-65
2022/07/27 06:26:02;;;;;;;;;;;;;;;;;;2209720;67;1195;-65
2022/07/27 06:28:35;;;;;;;;;;;;;;;;;;2209697;67;1244;-66
2022/07/27 06:31:11;;;;;;;;;;;;;;;;;;2209459;67;1156;-65
2022/07/27 06:33:45;;;;;;;;;;;;;;;;;;2209580;67;1219;-65
2022/07/27 06:36:18;;;;;;;;;;;;;;;;;;2209908;59;1341;-65
2022/07/27 06:38:52;;;;;;;;;;;;;;;;;;2206374;59;2106;-61
2022/07/27 06:41:25;;;;;;;;;;;;;;;;;;2210106;67;1237;-64
2022/07/27 06:43:58;;;;;;;;;;;;;;;;;;2209311;67;1993;-63
2022/07/27 06:46:35;;;;;;;;;;;;;;;;;;2209403;60;1178;-64
2022/07/27 06:49:08;;;;;;;;;;;;;;;;;;2209277;67;1156;-65
2022/07/27 06:51:41;;;;;;;;;;;;;;;;;;2209535;67;1172;-65
2022/07/27 06:54:15;;;;;;;;;;;;;;;;;;2209834;59;1218;-65
2022/07/27 06:56:48;;;;;;;;;;;;;;;;;;2209536;67;1237;-65
2022/07/27 06:59:22;;;;;;;;;;;;;;;;;;2205293;59;2239;-63
2022/07/27 07:01:58;;;;;;;;;;;;;;;;;;2206087;67;1332;-65
2022/07/27 07:04:32;;;;;;;;;;;;;;;;;;2209340;59;1978;-64
2022/07/27 07:07:05;;;;;;;;;;;;;;;;;;2205891;67;1550;-65
2022/07/27 07:09:38;;;;;;;;;;;;;;;;;;2209211;67;1213;-63
2022/07/27 07:12:12;;;;;;;;;;;;;;;;;;2209677;59;1431;-62
2022/07/27 07:14:46;;;;;;;;;;;;;;;;;;2209559;67;1213;-65
2022/07/27 07:17:22;;;;;;;;;;;;;;;;;;2209501;59;2192;-60
2022/07/27 07:19:55;;;;;;;;;;;;;;;;;;2209557;67;1082;-64
2022/07/27 07:22:28;;;;;;;;;;;;;;;;;;2209500;67;1210;-65
2022/07/27 07:25:02;;;;;;;;;;;;;;;;;;2209261;67;1933;-65
2022/07/27 07:27:35;;;;;;;;;;;;;;;;;;2209518;67;1198;-64
2022/07/27 07:30:09;;;;;;;;;;;;;;;;;;2209341;67;1172;-66
2022/07/27 07:32:45;;;;;;;;;;;;;;;;;;2209231;67;1186;-65
2022/07/27 07:35:19;;;;;;;;;;;;;;;;;;2205697;67;1127;-64
2022/07/27 07:37:52;;;;;;;;;;;;;;;;;;2208811;59;2054;-63
2022/07/27 07:40:25;;;;;;;;;;;;;;;;;;2209441;67;1237;-64
2022/07/27 07:43:01;;;;;;;;;;;;;;;;;;2209483;67;1207;-61
2022/07/27 07:45:36;;;;;;;;;;;;;;;;;;2209354;67;1979;-64
2022/07/27 07:48:13;;;;;;;;;;;;;;;;;;2210379;67;1126;-65
2022/07/27 07:50:46;;;;;;;;;;;;;;;;;;2210792;67;1173;-65
2022/07/27 07:53:19;;;;;;;;;;;;;;;;;;2210202;67;1149;-63
2022/07/27 07:55:54;;;;;;;;;;;;;;;;;;2210498;67;1168;-63
2022/07/27 07:58:28;;;;;;;;;;;;;;;;;;2206988;59;1565;-64
2022/07/27 08:01:01;;;;;;;;;;;;;;;;;;2209218;67;1088;-63
2022/07/27 08:03:37;;;;;;;;;;;;;;;;;;2210481;67;1374;-64
2022/07/27 08:06:10;;;;;;;;;;;;;;;;;;2209627;67;1131;-65
2022/07/27 08:08:44;;;;;;;;;;;;;;;;;;2210221;67;1173;-64
2022/07/27 08:11:17;;;;;;;;;;;;;;;;;;2206459;59;2048;-65
2022/07/27 08:13:50;;;;;;;;;;;;;;;;;;2210436;67;1262;-65
2022/07/27 08:16:23;;;;;;;;;;;;;;;;;;2209922;59;1963;-65
2022/07/27 08:19:00;;;;;;;;;;;;;;;;;;2209415;67;1130;-65
2022/07/27 08:21:33;;;;;;;;;;;;;;;;;;2209450;67;1562;-63
2022/07/27 08:24:07;;;;;;;;;;;;;;;;;;2210123;67;1942;-63
2022/07/27 08:26:40;;;;;;;;;;;;;;;;;;2210074;67;1240;-65
2022/07/27 08:29:14;;;;;;;;;;;;;;;;;;2209659;67;1141;-63
2022/07/27 08:31:47;;;;;;;;;;;;;;;;;;2209336;59;2397;-65
2022/07/27 08:34:23;;;;;;;;;;;;;;;;;;2209028;59;2330;-63
2022/07/27 08:36:57;;;;;;;;;;;;;;;;;;2207559;59;2025;-61
2022/07/27 08:39:30;;;;;;;;;;;;;;;;;;2210063;59;2429;-63
2022/07/27 08:42:05;;;;;;;;;;;;;;;;;;2210720;59;1843;-60
2022/07/27 08:44:40;;;;;;;;;;;;;;;;;;2206073;59;1924;-65
2022/07/27 08:47:15;;;;;;;;;;;;;;;;;;2209057;59;2374;-63
2022/07/27 08:49:51;;;;;;;;;;;;;;;;;;2209494;59;2449;-64
2022/07/27 08:52:25;;;;;;;;;;;;;;;;;;2209397;59;1394;-63
2022/07/27 08:54:58;;;;;;;;;;;;;;;;;;2210572;59;1207;-63
2022/07/27 08:57:31;;;;;;;;;;;;;;;;;;2208844;59;1803;-64
2022/07/27 09:00:05;;;;;;;;;;;;;;;;;;2208988;59;1860;-65
2022/07/27 09:02:41;;;;;;;;;;;;;;;;;;2209037;59;2325;-64
2022/07/27 09:05:17;;;;;;;;;;;;;;;;;;2210037;67;1978;-65
2022/07/27 09:07:50;;;;;;;;;;;;;;;;;;2208553;59;1871;-64
2022/07/27 09:10:30;;;;;;;;;;;;;;;;;;2209153;59;1736;-65
2022/07/27 09:13:18;;;;;;;;;;;;;;;;;;2208941;59;1628;-64
2022/07/27 09:15:52;;;;;;;;;;;;;;;;;;2208645;59;2475;-65
2022/07/27 09:18:27;;;;;;;;;;;;;;;;;;2208556;59;2412;-65
2022/07/27 09:21:13;;;;;;;;;;;;;;;;;;2208485;59;2358;-65
2022/07/27 09:23:47;;;;;;;;;;;;;;;;;;2208215;59;1800;-65
2022/07/27 09:26:21;;;;;;;;;;;;;;;;;;2209200;59;2447;-65
2022/07/27 09:28:56;;;;;;;;;;;;;;;;;;2209329;59;2357;-66
2022/07/27 09:31:29;;;;;;;;;;;;;;;;;;2209508;59;2306;-65
2022/07/27 09:34:03;;;;;;;;;;;;;;;;;;2208822;59;2287;-64
2022/07/27 09:36:50;;;;;;;;;;;;;;;;;;2208557;59;2468;-65
2022/07/27 09:39:24;;;;;;;;;;;;;;;;;;2208528;59;2428;-66
2022/07/27 09:41:58;;;;;;;;;;;;;;;;;;2204883;59;2420;-65
2022/07/27 09:44:35;;;;;;;;;;;;;;;;;;2208812;59;2496;-66
2022/07/27 09:47:21;;;;;;;;;;;;;;;;;;2208654;59;1790;-62
2022/07/27 09:49:55;;;;;;;;;;;;;;;;;;2208251;59;2271;-66
2022/07/27 09:52:32;;;;;;;;;;;;;;;;;;2209621;59;2354;-66
2022/07/27 09:55:06;;;;;;;;;;;;;;;;;;2208943;59;2534;-64
2022/07/27 09:57:53;;;;;;;;;;;;;;;;;;2208342;59;2117;-65
2022/07/27 10:00:26;;;;;;;;;;;;;;;;;;2209757;67;1145;-62
2022/07/27 10:03:00;;;;;;;;;;;;;;;;;;2208807;59;1229;-66
2022/07/27 10:05:34;;;;;;;;;;;;;;;;;;2208779;67;1923;-65
2022/07/27 10:08:10;;;;;;;;;;;;;;;;;;2209255;59;1548;-66
2022/07/27 10:10:43;;;;;;;;;;;;;;;;;;2208289;59;2354;-65
2022/07/27 10:13:16;;;;;;;;;;;;;;;;;;2209583;59;1749;-64
2022/07/27 10:15:49;;;;;;;;;;;;;;;;;;2208627;59;2414;-65
2022/07/27 10:18:29;;;;;;;;;;;;;;;;;;2209584;59;2433;-66
2022/07/27 10:21:06;;;;;;;;;;;;;;;;;;2209254;59;2413;-65
2022/07/27 10:23:42;;;;;;;;;;;;;;;;;;2208263;59;2435;-65
2022/07/27 10:26:20;;;;;;;;;;;;;;;;;;2208431;59;2262;-64
2022/07/27 10:28:54;;;;;;;;;;;;;;;;;;2208318;59;2482;-65
2022/07/27 10:31:29;;;;;;;;;;;;;;;;;;2209664;59;2256;-66
2022/07/27 10:34:02;;;;;;;;;;;;;;;;;;2208190;59;1710;-66
2022/07/27 10:36:45;;;;;;;;;;;;;;;;;;2209486;59;2446;-64
2022/07/27 10:39:35;;;;;;;;;;;;;;;;;;2209101;59;2354;-66
2022/07/27 10:42:21;;;;;;;;;;;;;;;;;;2209955;59;1738;-65
2022/07/27 10:44:58;;;;;;;;;;;;;;;;;;2208083;59;2864;-65
2022/07/27 10:47:33;;;;;;;;;;;;;;;;;;2209928;59;1598;-64
2022/07/27 10:50:31;;;;;;;;;;;;;;;;;;2208709;59;1492;-66
2022/07/27 10:53:06;;;;;;;;;;;;;;;;;;2206047;59;2246;-64
2022/07/27 10:55:49;;;;;;;;;;;;;;;;;;2209714;67;1195;-64
2022/07/27 10:58:41;;;;;;;;;;;;;;;;;;2210279;59;1188;-64
2022/07/27 11:01:15;;;;;;;;;;;;;;;;;;2206135;67;1670;-66
2022/07/27 11:03:51;;;;;;;;;;;;;;;;;;2209614;59;1245;-64
2022/07/27 11:06:26;;;;;;;;;;;;;;;;;;2210320;59;1984;-65
2022/07/27 11:09:01;;;;;;;;;;;;;;;;;;2210786;67;1183;-64
2022/07/27 11:11:39;;;;;;;;;;;;;;;;;;2206686;59;2182;-66
2022/07/27 11:14:12;;;;;;;;;;;;;;;;;;2209007;67;1227;-66
2022/07/27 11:16:46;;;;;;;;;;;;;;;;;;2211086;59;2015;-61
2022/07/27 11:19:19;;;;;;;;;;;;;;;;;;2210990;67;1247;-65
2022/07/27 11:21:53;;;;;;;;;;;;;;;;;;2211497;59;1786;-64
2022/07/27 11:24:27;;;;;;;;;;;;;;;;;;2210274;67;1219;-65
2022/07/27 11:27:03;;;;;;;;;;;;;;;;;;2210479;67;1940;-64
2022/07/27 11:29:37;;;;;;;;;;;;;;;;;;2211341;67;1280;-65
2022/07/27 11:32:18;;;;;;;;;;;;;;;;;;2210405;67;1140;-65
2022/07/27 11:34:52;;;;;;;;;;;;;;;;;;2206236;67;1756;-63
2022/07/27 11:37:25;;;;;;;;;;;;;;;;;;2210809;59;2210;-65
2022/07/27 11:40:00;;;;;;;;;;;;;;;;;;2211041;67;1194;-66
2022/07/27 11:42:45;;;;;;;;;;;;;;;;;;2210656;67;1293;-63
2022/07/27 11:45:29;;;;;;;;;;;;;;;;;;2210020;67;1912;-66
2022/07/27 11:48:03;;;;;;;;;;;;;;;;;;2210754;59;1257;-65
2022/07/27 11:50:36;;;;;;;;;;;;;;;;;;2210814;67;1227;-64
2022/07/27 11:53:11;;;;;;;;;;;;;;;;;;2209978;67;1211;-65
2022/07/27 11:55:50;;;;;;;;;;;;;;;;;;2210502;67;1241;-65
2022/07/27 11:58:26;;;;;;;;;;;;;;;;;;2206859;67;1736;-65
2022/07/27 12:00:59;;;;;;;;;;;;;;;;;;2210477;67;1258;-64
2022/07/27 12:03:33;;;;;;;;;;;;;;;;;;2210566;59;1394;-65
2022/07/27 12:06:06;;;;;;;;;;;;;;;;;;2209527;67;1931;-64
2022/07/27 12:08:39;;;;;;;;;;;;;;;;;;2210317;67;1073;-62
2022/07/27 12:11:15;;;;;;;;;;;;;;;;;;2210271;59;1046;-64
2022/07/27 12:13:58;;;;;;;;;;;;;;;;;;2210526;67;1215;-64
2022/07/27 12:16:34;;;;;;;;;;;;;;;;;;2210344;59;1972;-64
2022/07/27 12:19:07;;;;;;;;;;;;;;;;;;2210191;67;1140;-65
2022/07/27 12:21:41;;;;;;;;;;;;;;;;;;2210275;67;1191;-64
2022/07/27 12:24:14;;;;;;;;;;;;;;;;;;2209884;67;1233;-65
2022/07/27 12:27:02;;;;;;;;;;;;;;;;;;2210537;59;1969;-64
2022/07/27 12:29:55;;;;;;;;;;;;;;;;;;2206458;67;1215;-65
2022/07/27 12:32:29;;;;;;;;;;;;;;;;;;2210245;67;1274;-64
2022/07/27 12:35:03;;;;;;;;;;;;;;;;;;2210540;67;1282;-62
2022/07/27 12:37:41;;;;;;;;;;;;;;;;;;2210414;59;1979;-64
2022/07/27 12:40:15;;;;;;;;;;;;;;;;;;2206609;67;1538;-63
2022/07/27 12:42:56;;;;;;;;;;;;;;;;;;2210344;67;1227;-64
2022/07/27 12:45:36;;;;;;;;;;;;;;;;;;2209383;67;1973;-63
2022/07/27 12:48:11;;;;;;;;;;;;;;;;;;2209852;67;1128;-64
2022/07/27 12:50:46;;;;;;;;;;;;;;;;;;2209837;67;1196;-65
2022/07/27 12:53:20;;;;;;;;;;;;;;;;;;2210025;67;1223;-62
2022/07/27 12:55:55;;;;;;;;;;;;;;;;;;2206594;59;1371;-64
2022/07/27 12:58:28;;;;;;;;;;;;;;;;;;2209823;59;1134;-64
2022/07/27 13:01:05;;;;;;;;;;;;;;;;;;2209269;67;1329;-63
2022/07/27 13:03:38;;;;;;;;;;;;;;;;;;2209996;59;1320;-65
2022/07/27 13:06:12;;;;;;;;;;;;;;;;;;2209727;67;1996;-65
2022/07/27 13:08:45;;;;;;;;;;;;;;;;;;2209994;67;1184;-66
2022/07/27 13:11:19;;;;;;;;;;;;;;;;;;2209353;59;1444;-64
2022/07/27 13:13:52;;;;;;;;;;;;;;;;;;2210072;67;1299;-64
2022/07/27 13:16:28;;;;;;;;;;;;;;;;;;2209602;59;2014;-65
2022/07/27 13:19:01;;;;;;;;;;;;;;;;;;2209643;67;1282;-65
2022/07/27 13:21:34;;;;;;;;;;;;;;;;;;2209843;67;1206;-61
2022/07/27 13:24:09;;;;;;;;;;;;;;;;;;2209475;67;1321;-63
2022/07/27 13:26:43;;;;;;;;;;;;;;;;;;2209736;67;1988;-64
2022/07/27 13:29:16;;;;;;;;;;;;;;;;;;2209460;67;1117;-66
2022/07/27 13:31:52;;;;;;;;;;;;;;;;;;2209908;67;1132;-65
2022/07/27 13:34:25;;;;;;;;;;;;;;;;;;2210115;67;1211;-66
2022/07/27 13:36:58;;;;;;;;;;;;;;;;;;2209797;67;1430;-63
2022/07/27 13:39:32;;;;;;;;;;;;;;;;;;2209487;59;2445;-64
2022/07/27 13:42:05;;;;;;;;;;;;;;;;;;2210143;67;1211;-65
2022/07/27 13:44:38;;;;;;;;;;;;;;;;;;2209865;67;1230;-64
2022/07/27 13:47:14;;;;;;;;;;;;;;;;;;2209669;67;1996;-63
2022/07/27 13:49:47;;;;;;;;;;;;;;;;;;2209992;67;1188;-64
2022/07/27 13:52:20;;;;;;;;;;;;;;;;;;2209896;67;1199;-64
2022/07/27 13:54:54;;;;;;;;;;;;;;;;;;2209952;67;1241;-66
2022/07/27 13:57:27;;;;;;;;;;;;;;;;;;2209687;59;1350;-65
2022/07/27 14:00:00;;;;;;;;;;;;;;;;;;2208918;67;1232;-65
2022/07/27 14:02:36;;;;;;;;;;;;;;;;;;2210066;67;1267;-65
2022/07/27 14:05:09;;;;;;;;;;;;;;;;;;2209926;67;1220;-64
2022/07/27 14:07:43;;;;;;;;;;;;;;;;;;2209665;67;1984;-65
2022/07/27 14:10:38;;;;;;;;;;;;;;;;;;2209630;67;1159;-65
2022/07/27 14:13:12;;;;;;;;;;;;;;;;;;2209845;67;1264;-61
2022/07/27 14:15:46;;;;;;;;;;;;;;;;;;2209335;59;1962;-63
2022/07/27 14:18:22;;;;;;;;;;;;;;;;;;2209539;67;1163;-65
2022/07/27 14:20:55;;;;;;;;;;;;;;;;;;2209658;67;1250;-65
2022/07/27 14:23:29;;;;;;;;;;;;;;;;;;2209785;67;1254;-65
2022/07/27 14:26:03;;;;;;;;;;;;;;;;;;2209382;67;1993;-62
2022/07/27 14:28:37;;;;;;;;;;;;;;;;;;2209487;67;1205;-64
2022/07/27 14:31:11;;;;;;;;;;;;;;;;;;2209811;67;1233;-65
2022/07/27 14:33:47;;;;;;;;;;;;;;;;;;2209485;67;1234;-65
2022/07/27 14:36:20;;;;;;;;;;;;;;;;;;2210307;67;1235;-64
2022/07/27 14:38:54;;;;;;;;;;;;;;;;;;2209948;59;2212;-63
2022/07/27 14:41:27;;;;;;;;;;;;;;;;;;2210142;67;1255;-65
2022/07/27 14:44:00;;;;;;;;;;;;;;;;;;2210102;67;1291;-65
2022/07/27 14:46:33;;;;;;;;;;;;;;;;;;2209591;67;1924;-65
2022/07/27 14:49:09;;;;;;;;;;;;;;;;;;2209982;67;1061;-65
2022/07/27 14:51:43;;;;;;;;;;;;;;;;;;2209462;67;1244;-65
2022/07/27 14:54:16;;;;;;;;;;;;;;;;;;2210758;67;1178;-64
2022/07/27 14:56:49;;;;;;;;;;;;;;;;;;2209598;59;1290;-64
2022/07/27 14:59:23;;;;;;;;;;;;;;;;;;2210587;59;1168;-63
2022/07/27 15:01:56;;;;;;;;;;;;;;;;;;2210651;67;1255;-65
2022/07/27 15:04:32;;;;;;;;;;;;;;;;;;2210289;59;1220;-63
2022/07/27 15:07:05;;;;;;;;;;;;;;;;;;2210560;67;1924;-62
2022/07/27 15:09:38;;;;;;;;;;;;;;;;;;2209898;67;1217;-64
2022/07/27 15:12:11;;;;;;;;;;;;;;;;;;2210899;59;1462;-65
2022/07/27 15:14:44;;;;;;;;;;;;;;;;;;2210520;67;1210;-64
2022/07/27 15:17:17;;;;;;;;;;;;;;;;;;2210722;59;2092;-65
2022/07/27 15:19:53;;;;;;;;;;;;;;;;;;2210726;67;1160;-62
2022/07/27 15:22:26;;;;;;;;;;;;;;;;;;2210092;67;1247;-65
2022/07/27 15:24:59;;;;;;;;;;;;;;;;;;2210494;67;1238;-64
2022/07/27 15:27:33;;;;;;;;;;;;;;;;;;2210290;67;1920;-63
2022/07/27 15:30:07;;;;;;;;;;;;;;;;;;2210096;59;1070;-65
2022/07/27 15:32:40;;;;;;;;;;;;;;;;;;2210198;67;1320;-63
2022/07/27 15:35:16;;;;;;;;;;;;;;;;;;2209827;67;1153;-64
2022/07/27 15:37:49;;;;;;;;;;;;;;;;;;2210013;59;2030;-64
2022/07/27 15:40:40;;;;;;;;;;;;;;;;;;2209681;67;1207;-65
2022/07/27 15:43:14;;;;;;;;;;;;;;;;;;2211309;67;1218;-65
2022/07/27 15:45:48;;;;;;;;;;;;;;;;;;2211303;67;1195;-64
2022/07/27 15:48:22;;;;;;;;;;;;;;;;;;2210097;67;1927;-64
2022/07/27 15:50:59;;;;;;;;;;;;;;;;;;2211870;67;1148;-65
2022/07/27 15:53:32;;;;;;;;;;;;;;;;;;2211119;67;1239;-64
2022/07/27 15:56:05;;;;;;;;;;;;;;;;;;2210814;67;1095;-64
2022/07/27 15:58:38;;;;;;;;;;;;;;;;;;2211914;59;1283;-65
2022/07/27 16:01:12;;;;;;;;;;;;;;;;;;2210626;67;1126;-65
2022/07/27 16:03:45;;;;;;;;;;;;;;;;;;2210369;59;1275;-65
2022/07/27 16:06:21;;;;;;;;;;;;;;;;;;2211096;67;1097;-64
2022/07/27 16:08:54;;;;;;;;;;;;;;;;;;2210970;67;1940;-64
2022/07/27 16:11:27;;;;;;;;;;;;;;;;;;2210810;59;1434;-64
2022/07/27 16:14:00;;;;;;;;;;;;;;;;;;2210811;67;1244;-63
2022/07/27 16:16:34;;;;;;;;;;;;;;;;;;2211852;59;1949;-63
2022/07/27 16:19:08;;;;;;;;;;;;;;;;;;2211184;67;1050;-64
2022/07/27 16:21:44;;;;;;;;;;;;;;;;;;2212141;67;1177;-64
2022/07/27 16:24:17;;;;;;;;;;;;;;;;;;2209502;67;1425;-65
2022/07/27 16:26:50;;;;;;;;;;;;;;;;;;2211011;67;1996;-65
2022/07/27 16:29:26;;;;;;;;;;;;;;;;;;2210815;67;1291;-63
2022/07/27 16:31:59;;;;;;;;;;;;;;;;;;2209854;67;1237;-65
2022/07/27 16:34:33;;;;;;;;;;;;;;;;;;2209528;59;1199;-65
2022/07/27 16:37:09;;;;;;;;;;;;;;;;;;2210620;59;2107;-64
2022/07/27 16:39:43;;;;;;;;;;;;;;;;;;2209895;67;1214;-65
2022/07/27 16:42:16;;;;;;;;;;;;;;;;;;2211104;67;1223;-65
2022/07/27 16:44:49;;;;;;;;;;;;;;;;;;2209836;67;1202;-65
2022/07/27 16:47:22;;;;;;;;;;;;;;;;;;2210590;67;1975;-63
2022/07/27 16:49:56;;;;;;;;;;;;;;;;;;2211065;67;1235;-64
2022/07/27 16:52:32;;;;;;;;;;;;;;;;;;2209952;67;1219;-66
2022/07/27 16:55:05;;;;;;;;;;;;;;;;;;2210948;67;1014;-64
2022/07/27 16:57:38;;;;;;;;;;;;;;;;;;2210804;59;1243;-64
2022/07/27 17:00:12;;;;;;;;;;;;;;;;;;2209448;67;1209;-65
2022/07/27 17:02:45;;;;;;;;;;;;;;;;;;2210428;59;1275;-65
2022/07/27 17:05:18;;;;;;;;;;;;;;;;;;2209826;67;1177;-63
2022/07/27 17:07:54;;;;;;;;;;;;;;;;;;2211311;67;2000;-64
2022/07/27 17:10:27;;;;;;;;;;;;;;;;;;2210429;67;1136;-65
2022/07/27 17:13:00;;;;;;;;;;;;;;;;;;2209654;59;1719;-65
2022/07/27 17:15:33;;;;;;;;;;;;;;;;;;2211281;67;2273;-65
2022/07/27 17:18:07;;;;;;;;;;;;;;;;;;2208733;59;1489;-65
2022/07/27 17:20:40;;;;;;;;;;;;;;;;;;2210517;67;1151;-64
2022/07/27 17:23:16;;;;;;;;;;;;;;;;;;2210151;67;1239;-63
2022/07/27 17:25:49;;;;;;;;;;;;;;;;;;2210207;67;1222;-65
2022/07/27 17:28:23;;;;;;;;;;;;;;;;;;2209325;67;1928;-65
2022/07/27 17:30:56;;;;;;;;;;;;;;;;;;2209781;59;1694;-63
2022/07/27 17:33:29;;;;;;;;;;;;;;;;;;2209209;67;1199;-64
2022/07/27 17:36:02;;;;;;;;;;;;;;;;;;2209238;59;1395;-65
2022/07/27 17:38:38;;;;;;;;;;;;;;;;;;2210153;59;2134;-65
2022/07/27 17:41:11;;;;;;;;;;;;;;;;;;2209331;67;998;-64
2022/07/27 17:43:45;;;;;;;;;;;;;;;;;;2210717;67;1291;-63
2022/07/27 17:46:18;;;;;;;;;;;;;;;;;;2210315;67;1084;-63
2022/07/27 17:48:51;;;;;;;;;;;;;;;;;;2208359;59;1924;-61
2022/07/27 17:51:24;;;;;;;;;;;;;;;;;;2209290;67;1176;-63
2022/07/27 17:54:02;;;;;;;;;;;;;;;;;;2210278;67;1330;-64
2022/07/27 17:56:36;;;;;;;;;;;;;;;;;;2210545;67;1185;-63